Time;durP1;ratioP1;P1;durP2;ratioP2;P2;SDS_P1;SDS_P2;PMS_P1;PMS_P2;Temp;Humidity;BMP_temperature;BMP_pressure;BME280_temperature;BME280_humidity;BME280_pressure;Samples;Min_cycle;Max_cycle;Signal;HPM_P1;HPM_P2
2022/07/03 00:04:34;;;;;;;5.63;1.80;;;;;;;16.95;58.45;99334.00;12631692;23;20029;-74
2022/07/03 00:09:35;;;;;;;4.13;1.70;;;;;;;16.89;58.44;99323.59;12658838;23;20101;-75
2022/07/03 00:14:37;;;;;;;3.25;1.40;;;;;;;16.90;58.75;99330.63;12633454;23;20069;-74
2022/07/03 00:19:39;;;;;;;5.55;1.85;;;;;;;16.83;59.05;99310.56;12658078;23;20022;-74
2022/07/03 00:24:47;;;;;;;4.38;2.10;;;;;;;16.73;59.33;99287.06;12632237;23;20373;-75
2022/07/03 00:29:50;;;;;;;6.20;1.95;;;;;;;16.64;59.34;99249.50;12658652;23;20048;-75
2022/07/03 00:34:54;;;;;;;4.18;1.92;;;;;;;16.58;59.66;99232.06;12632108;23;20030;-75
2022/07/03 00:39:57;;;;;;;3.47;1.80;;;;;;;16.53;59.98;99223.41;12658724;23;20444;-74
2022/07/03 00:45:00;;;;;;;2.50;1.58;;;;;;;16.48;60.09;99209.50;12658199;23;20110;-75
2022/07/03 00:50:08;;;;;;;3.53;1.63;;;;;;;16.37;60.55;99172.88;12632168;23;20415;-74
2022/07/03 00:55:15;;;;;;;2.90;1.63;;;;;;;16.26;60.60;99141.53;12658241;23;20376;-75
2022/07/03 01:00:17;;;;;;;4.32;1.83;;;;;;;16.14;60.94;99099.66;12633239;23;20113;-74
2022/07/03 01:05:42;;;;;;;3.85;1.83;;;;;;;16.05;61.15;99064.72;12656471;23;20018;-74
2022/07/03 01:11:21;;;;;;;6.13;2.25;;;;;;;15.90;61.36;99018.59;12658355;23;20092;-74
2022/07/03 01:16:59;;;;;;;3.83;1.80;;;;;;;15.74;61.70;98961.91;12656961;23;20026;-75
2022/07/03 01:22:19;;;;;;;4.40;2.05;;;;;;;15.70;61.90;98952.38;12657597;23;20360;-74
2022/07/03 01:27:32;;;;;;;5.97;2.22;;;;;;;15.77;62.02;98979.44;12629967;23;20467;-75
2022/07/03 01:32:42;;;;;;;7.18;2.65;;;;;;;15.79;62.32;98998.72;12655744;23;20100;-75
2022/07/03 01:37:45;;;;;;;5.47;1.88;;;;;;;15.78;62.65;99002.28;12629847;23;20459;-78
2022/07/03 01:42:48;;;;;;;5.63;2.00;;;;;;;15.80;62.94;99011.03;12630424;23;20028;-74
2022/07/03 01:47:52;;;;;;;4.18;2.10;;;;;;;15.87;63.15;99060.06;12629757;23;20145;-75
2022/07/03 01:52:55;;;;;;;4.30;2.20;;;;;;;15.80;63.25;99034.78;12654878;23;20105;-77
2022/07/03 01:57:57;;;;;;;4.05;2.00;;;;;;;15.78;63.63;99036.59;12655423;23;20607;-75
2022/07/03 02:03:05;;;;;;;5.13;2.67;;;;;;;15.79;63.72;99049.72;12654223;23;20029;-75
2022/07/03 02:08:38;;;;;;;5.63;1.80;;;;;;;15.93;64.19;99106.50;12656647;23;20672;-74
2022/07/03 02:14:20;;;;;;;7.38;2.30;;;;;;;15.93;64.50;99117.94;12653666;23;20036;-74
2022/07/03 02:19:38;;;;;;;6.82;2.03;;;;;;;15.85;64.46;99093.53;12655291;23;20076;-74
2022/07/03 02:24:44;;;;;;;4.95;2.10;;;;;;;15.69;64.69;99035.94;12654777;23;20549;-75
2022/07/03 02:29:55;;;;;;;4.18;2.20;;;;;;;15.62;65.19;99013.31;12628736;23;20028;-75
2022/07/03 02:35:04;;;;;;;4.30;1.98;;;;;;;15.54;65.13;98988.97;12652576;23;20026;-76
2022/07/03 02:40:54;;;;;;;7.85;1.90;;;;;;;15.50;65.52;98972.34;12655327;23;20045;-75
2022/07/03 02:46:49;;;;;;;4.50;2.03;;;;;;;15.45;65.76;98962.88;12596734;23;20058;-75
2022/07/03 02:52:09;;;;;;;6.47;2.08;;;;;;;15.42;66.00;98974.38;12628767;23;20033;-75
2022/07/03 02:57:12;;;;;;;;;;;;;;;15.45;66.26;98981.34;12655993;23;20776;-75
2022/07/03 03:02:29;;;;;;;6.10;3.40;;;;;;;15.42;66.51;98979.66;12655065;23;20003;-75
2022/07/03 03:07:57;;;;;;;4.55;2.10;;;;;;;15.49;66.47;99019.88;12655620;23;20764;-75
2022/07/03 03:13:04;;;;;;;5.78;2.20;;;;;;;15.55;66.84;99049.59;12589972;23;20060;-75
2022/07/03 03:18:11;;;;;;;10.85;2.35;;;;;;;15.56;67.09;99053.06;12604388;23;20045;-75
2022/07/03 03:23:31;;;;;;;4.90;2.00;;;;;;;15.60;67.35;99078.44;12625589;23;20050;-75
2022/07/03 03:28:33;;;;;;;7.15;2.58;;;;;;;15.58;67.38;99080.25;12652781;23;20562;-74
2022/07/03 03:33:45;;;;;;;4.15;2.05;;;;;;;15.59;67.71;99095.19;12629970;23;20116;-75
2022/07/03 03:38:48;;;;;;;6.60;2.55;;;;;;;15.62;68.08;99107.44;12629803;23;20049;-75
2022/07/03 03:43:50;;;;;;;4.85;2.08;;;;;;;15.72;68.00;99151.94;12654061;23;20375;-75
2022/07/03 03:48:52;;;;;;;5.45;2.10;;;;;;;15.79;68.39;99194.88;12656541;23;20093;-75
2022/07/03 03:53:53;;;;;;;6.22;2.00;;;;;;;15.84;68.67;99214.09;12652179;23;20113;-76
2022/07/03 03:58:55;;;;;;;7.25;2.30;;;;;;;15.84;68.65;99222.00;12629712;23;20392;-75
2022/07/03 04:03:59;;;;;;;6.07;2.30;;;;;;;15.86;69.01;99245.72;12627384;23;20131;-75
2022/07/03 04:09:00;;;;;;;7.38;2.10;;;;;;;15.87;69.13;99252.72;12604638;23;20026;-75
2022/07/03 04:14:02;;;;;;;5.20;2.20;;;;;;;16.00;69.30;99309.53;12653543;23;20060;-76
2022/07/03 04:19:03;;;;;;;3.72;2.08;;;;;;;16.06;69.50;99340.16;12655119;23;20508;-75
2022/07/03 04:24:06;;;;;;;8.27;2.33;;;;;;;16.08;69.73;99348.91;12654290;23;20112;-75
2022/07/03 04:29:07;;;;;;;4.57;2.25;;;;;;;16.06;69.89;99348.97;12629156;23;20053;-75
2022/07/03 04:34:09;;;;;;;4.88;2.55;;;;;;;16.05;70.01;99352.50;12629105;23;20097;-75
2022/07/03 04:39:10;;;;;;;6.40;2.20;;;;;;;16.02;70.30;99344.66;12655669;23;20053;-75
2022/07/03 04:44:12;;;;;;;5.40;2.20;;;;;;;16.05;70.70;99363.06;12655770;23;20033;-75
2022/07/03 04:49:14;;;;;;;5.20;2.20;;;;;;;16.11;70.65;99387.56;12655475;23;20096;-74
2022/07/03 04:54:15;;;;;;;5.97;2.35;;;;;;;16.10;70.76;99399.03;12654150;23;20426;-76
2022/07/03 04:59:17;;;;;;;5.53;2.50;;;;;;;16.13;70.96;99410.38;12656332;23;20032;-76
2022/07/03 05:04:18;;;;;;;7.00;2.78;;;;;;;16.18;71.31;99441.94;12656793;23;20067;-75
2022/07/03 05:09:20;;;;;;;6.70;2.20;;;;;;;16.27;71.32;99486.56;12631277;23;20036;-77
2022/07/03 05:14:22;;;;;;;5.63;2.67;;;;;;;16.42;71.53;99559.25;12627534;23;20030;-75
2022/07/03 05:19:23;;;;;;;5.63;2.60;;;;;;;16.61;71.69;99631.00;12664968;23;20109;-74
2022/07/03 05:24:25;;;;;;;7.05;2.40;;;;;;;16.76;71.89;99709.03;12655053;23;20085;-76
2022/07/03 05:29:26;;;;;;;4.65;2.38;;;;;;;17.03;72.00;99828.25;12656976;23;20045;-75
2022/07/03 05:34:28;;;;;;;6.45;2.40;;;;;;;17.23;72.29;99918.53;12658465;23;20093;-75
2022/07/03 05:39:32;;;;;;;5.63;2.67;;;;;;;17.51;72.57;100033.47;12656803;23;20116;-75
2022/07/03 05:44:34;;;;;;;4.38;2.35;;;;;;;17.88;72.62;100208.22;12647251;23;20059;-76
2022/07/03 05:49:35;;;;;;;7.90;2.75;;;;;;;18.14;72.56;100310.97;12656231;23;20353;-75
2022/07/03 05:54:37;;;;;;;5.72;2.55;;;;;;;18.61;73.08;100520.28;12629618;23;20546;-75
2022/07/03 05:59:39;;;;;;;6.97;3.03;;;;;;;18.94;72.99;100665.56;12654821;23;20446;-75
2022/07/03 06:04:40;;;;;;;4.57;2.72;;;;;;;19.18;73.17;100773.88;12654921;23;20029;-75
2022/07/03 06:09:43;;;;;;;4.95;2.40;;;;;;;19.33;73.28;100851.47;12654863;23;20364;-75
2022/07/03 06:14:45;;;;;;;4.45;2.30;;;;;;;19.50;73.04;100917.56;12654138;23;20408;-75
2022/07/03 06:19:47;;;;;;;8.02;2.65;;;;;;;19.76;73.53;101036.63;12650820;23;20061;-74
2022/07/03 06:24:49;;;;;;;5.13;2.22;;;;;;;20.43;73.20;101331.53;12675520;23;20061;-74
2022/07/03 06:29:50;;;;;;;5.63;2.05;;;;;;;21.07;73.68;101614.50;12656730;23;20056;-76
2022/07/03 06:34:52;;;;;;;4.10;2.15;;;;;;;21.32;73.24;101718.06;12654485;23;20341;-75
2022/07/03 06:39:53;;;;;;;4.45;1.73;;;;;;;21.53;73.43;101813.72;12651523;23;20101;-75
2022/07/03 06:44:55;;;;;;;5.15;1.90;;;;;;;21.60;73.27;101833.16;12652176;23;20080;-75
2022/07/03 06:49:57;;;;;;;4.88;2.00;;;;;;;21.61;73.05;101826.06;12651857;23;20101;-77
2022/07/03 06:54:58;;;;;;;4.35;2.40;;;;;;;21.60;72.63;101830.50;12652902;23;20105;-76
2022/07/03 07:00:00;;;;;;;5.35;2.20;;;;;;;22.21;72.65;102086.66;12655113;23;20153;-74
2022/07/03 07:05:02;;;;;;;6.25;2.08;;;;;;;23.23;72.50;102537.00;12653900;23;20030;-75
2022/07/03 07:10:04;;;;;;;3.53;1.98;;;;;;;24.01;72.11;102885.88;12656157;23;20105;-76
2022/07/03 07:15:06;;;;;;;5.82;1.90;;;;;;;24.76;72.16;103222.00;12655387;23;20030;-75
2022/07/03 07:20:08;;;;;;;5.00;1.75;;;;;;;25.39;71.82;103491.66;12656066;23;20101;-75
2022/07/03 07:25:09;;;;;;;3.92;1.30;;;;;;;26.03;71.47;103766.16;12656811;23;20069;-75
2022/07/03 07:30:11;;;;;;;4.55;1.60;;;;;;;26.48;70.81;103948.78;12630160;23;20046;-76
2022/07/03 07:35:13;;;;;;;4.65;1.52;;;;;;;26.88;70.08;104110.09;12655746;23;20054;-76
2022/07/03 07:40:14;;;;;;;4.18;1.30;;;;;;;27.20;69.17;104232.91;12655097;23;20022;-76
2022/07/03 07:45:16;;;;;;;4.90;1.40;;;;;;;27.27;68.56;104229.34;12630516;23;20424;-77
2022/07/03 07:50:18;;;;;;;5.38;1.70;;;;;;;27.39;67.61;104239.25;12654633;23;20045;-76
2022/07/03 07:55:20;;;;;;;5.53;2.00;;;;;;;28.06;66.96;104523.84;12652935;23;20060;-76
2022/07/03 08:00:22;;;;;;;4.20;2.13;;;;;;;28.28;65.97;104588.56;12653852;23;20034;-75
2022/07/03 08:05:36;;;;;;;5.90;2.00;;;;;;;28.19;65.22;104511.28;12654655;23;20495;-75
2022/07/03 08:10:45;;;;;;;3.60;1.85;;;;;;;28.11;64.86;104429.56;12630509;23;20455;-76
2022/07/03 08:15:47;;;;;;;5.00;1.58;;;;;;;27.79;63.84;104244.59;12658064;23;20057;-75
2022/07/03 08:20:48;;;;;;;3.45;1.70;;;;;;;28.49;63.17;104531.06;12659412;23;20029;-75
2022/07/03 08:25:50;;;;;;;3.35;1.20;;;;;;;28.52;62.70;104513.09;12659734;23;20886;-75
2022/07/03 08:30:51;;;;;;;3.45;1.40;;;;;;;28.51;61.72;104465.50;12659381;23;20073;-75
2022/07/03 08:35:53;;;;;;;4.85;1.50;;;;;;;28.57;61.01;104456.50;12659555;23;20041;-75
2022/07/03 08:40:55;;;;;;;2.38;1.17;;;;;;;28.85;60.62;104548.19;12659072;23;20108;-75
2022/07/03 08:46:00;;;;;;;2.10;1.00;;;;;;;29.04;59.77;104598.50;12659165;23;20448;-75
2022/07/03 08:51:02;;;;;;;3.60;1.40;;;;;;;29.02;59.15;104557.16;12659078;23;20034;-76
2022/07/03 08:56:04;;;;;;;5.45;1.40;;;;;;;28.48;58.17;104271.44;12657799;23;20018;-75
2022/07/03 09:01:06;;;;;;;1.58;1.20;;;;;;;28.89;57.77;104420.50;12657728;23;20034;-76
2022/07/03 09:06:08;;;;;;;5.97;1.77;;;;;;;28.62;57.19;104260.63;12657323;23;20021;-77
2022/07/03 09:11:10;;;;;;;4.78;1.60;;;;;;;28.33;56.56;104109.78;12658111;23;20057;-79
2022/07/03 09:16:16;;;;;;;2.78;1.40;;;;;;;28.85;56.38;104313.53;12630611;23;20033;-79
2022/07/03 09:21:20;;;;;;;2.80;1.13;;;;;;;29.12;55.79;104406.03;12655688;23;20037;-81
2022/07/03 09:26:25;;;;;;;5.22;1.20;;;;;;;29.12;55.13;104368.28;12655140;23;20022;-79
2022/07/03 09:31:29;;;;;;;6.82;2.35;;;;;;;28.82;54.87;104211.09;12654698;23;20056;-78
2022/07/03 09:36:43;;;;;;;2.08;1.20;;;;;;;28.59;53.90;104082.69;12647766;23;20042;-77
2022/07/03 09:41:59;;;;;;;3.22;0.93;;;;;;;28.96;53.64;104211.91;12658533;23;20550;-79
2022/07/03 09:47:19;;;;;;;3.47;0.90;;;;;;;29.09;52.71;104243.28;12659354;23;20466;-80
2022/07/03 09:52:32;;;;;;;3.88;1.10;;;;;;;29.37;52.62;104342.06;12663180;23;20030;-79
2022/07/03 09:57:33;;;;;;;2.08;0.95;;;;;;;29.16;52.22;104213.56;12658465;23;20462;-82
2022/07/03 10:02:35;;;;;;;2.15;0.93;;;;;;;29.19;51.77;104198.22;12664218;23;20033;-82
2022/07/03 10:08:00;;;;;;;1.48;0.80;;;;;;;28.67;51.00;103954.13;12654718;23;20081;-74
2022/07/03 10:13:03;;;;;;;1.48;0.90;;;;;;;28.24;50.93;103736.28;12654475;23;20113;-74
2022/07/03 10:18:09;;;;;;;2.80;0.82;;;;;;;29.22;50.59;104143.38;12655483;23;20064;-75
2022/07/03 10:23:11;;;;;;;3.17;1.15;;;;;;;28.79;50.24;103934.25;12654071;23;20033;-75
2022/07/03 10:28:14;;;;;;;1.75;0.80;;;;;;;29.02;49.54;104003.25;12655251;23;20108;-75
2022/07/03 10:33:17;;;;;;;2.35;0.90;;;;;;;29.18;49.39;104068.72;12628105;23;20034;-72
2022/07/03 10:38:41;;;;;;;3.97;1.13;;;;;;;29.12;48.96;104012.16;12655032;23;20105;-73
2022/07/03 10:49:12;;;;;;;3.20;0.88;;;;;;;27.95;48.18;103457.38;12654814;23;20052;-72
2022/07/03 10:54:17;;;;;;;2.88;0.90;;;;;;;27.47;47.90;103242.78;12657328;23;20266;-74
2022/07/03 10:59:19;;;;;;;2.63;0.80;;;;;;;26.95;47.90;103004.25;12661374;23;20034;-73
2022/07/03 11:04:20;;;;;;;4.13;1.08;;;;;;;26.84;47.37;102955.16;12627575;23;20034;-73
2022/07/03 11:09:22;;;;;;;2.78;0.80;;;;;;;26.75;47.33;102908.75;12654888;23;20062;-73
2022/07/03 11:14:28;;;;;;;2.72;0.90;;;;;;;26.58;47.14;102825.69;12654513;23;20029;-73
2022/07/03 11:19:32;;;;;;;1.83;0.82;;;;;;;26.56;47.01;102810.53;12628116;23;20113;-72
2022/07/03 11:24:44;;;;;;;2.90;1.10;;;;;;;26.16;46.95;102640.28;12653498;23;20030;-72
2022/07/03 11:29:55;;;;;;;25.35;22.60;;;;;;;26.71;47.26;102864.03;12654571;23;20026;-73
2022/07/03 11:34:56;;;;;;;13.05;7.50;;;;;;;27.20;47.37;103066.53;12654157;23;20097;-71
2022/07/03 11:40:04;;;;;;;5.30;2.33;;;;;;;26.83;47.25;102905.91;12654491;23;20063;-75
2022/07/03 11:45:07;;;;;;;9.27;5.93;;;;;;;26.84;46.99;102902.28;12651039;23;20054;-78
2022/07/03 11:50:08;;;;;;;6.63;1.40;;;;;;;26.51;46.64;102764.94;12625818;23;20034;-79
2022/07/03 11:55:10;;;;;;;7.53;3.45;;;;;;;27.04;46.98;102977.22;12650783;23;20065;-79
2022/07/03 12:00:12;;;;;;;37.40;21.55;;;;;;;27.71;46.95;103256.75;12653417;23;20018;-78
2022/07/03 12:05:15;;;;;;;163.10;103.72;;;;;;;27.75;46.62;103263.00;12653934;23;20056;-78
2022/07/03 12:10:38;;;;;;;2.80;1.23;;;;;;;27.04;46.30;102952.09;12634030;23;20044;-78
2022/07/03 12:15:40;;;;;;;2.60;1.10;;;;;;;26.84;46.31;102870.03;12632138;23;20187;-79
2022/07/03 12:20:42;;;;;;;3.55;0.95;;;;;;;26.69;46.48;102789.72;12658003;23;20014;-77
2022/07/03 12:25:43;;;;;;;2.28;0.85;;;;;;;26.24;46.35;102600.78;12655834;23;20026;-77
2022/07/03 12:30:45;;;;;;;4.22;1.30;;;;;;;25.99;46.28;102489.44;12658583;23;20117;-81
2022/07/03 12:36:05;;;;;;;3.45;1.20;;;;;;;26.45;46.33;102681.78;12655566;23;20879;-78
2022/07/03 12:41:08;;;;;;;3.88;0.98;;;;;;;26.63;45.91;102745.91;12657926;23;20535;-77
2022/07/03 12:46:31;;;;;;;2.47;1.00;;;;;;;26.94;46.21;102877.03;12656776;23;20124;-80
2022/07/03 12:51:46;;;;;;;4.78;0.95;;;;;;;27.59;45.89;103139.44;12631414;23;20026;-79
2022/07/03 13:02:26;;;;;;;5.07;1.08;;;;;;;27.93;45.78;103276.13;12656728;23;20097;-78
2022/07/03 13:07:30;;;;;;;2.45;1.00;;;;;;;27.95;45.85;103286.88;12654633;23;20033;-77
2022/07/03 13:12:31;;;;;;;3.47;1.20;;;;;;;27.90;46.33;103254.66;12656852;23;20153;-79
2022/07/03 13:17:54;;;;;;;6.45;1.40;;;;;;;27.71;46.23;103172.44;12656520;23;20025;-77
2022/07/03 13:22:58;;;;;;;1.40;0.90;;;;;;;28.06;45.96;103321.72;12655681;23;20355;-82
2022/07/03 13:28:05;;;;;;;3.33;1.48;;;;;;;27.93;46.49;103265.38;12658163;23;20060;-81
2022/07/03 13:33:09;;;;;;;3.00;1.17;;;;;;;28.01;46.12;103297.56;12660034;23;20022;-78
2022/07/03 13:38:10;;;;;;;5.70;1.30;;;;;;;26.93;46.31;102848.38;12656795;23;20125;-81
2022/07/03 13:43:12;;;;;;;6.35;1.30;;;;;;;26.16;46.54;102510.56;12654669;23;20037;-78
2022/07/03 13:48:13;;;;;;;4.30;1.05;;;;;;;25.53;46.26;102249.84;12655070;23;20113;-77
2022/07/03 13:53:15;;;;;;;3.13;1.08;;;;;;;25.16;46.18;102098.75;12653045;23;20432;-78
2022/07/03 13:58:17;;;;;;;5.57;1.10;;;;;;;25.97;46.40;102434.88;12628675;23;20046;-77
2022/07/03 14:03:19;;;;;;;3.38;1.15;;;;;;;26.41;46.57;102619.22;12653279;23;20026;-79
2022/07/03 14:08:21;;;;;;;6.00;1.10;;;;;;;26.96;46.54;102853.72;12654560;23;20084;-78
2022/07/03 14:13:22;;;;;;;3.85;0.95;;;;;;;27.44;46.84;103050.94;12652970;23;20101;-79
2022/07/03 14:18:24;;;;;;;5.03;0.93;;;;;;;27.30;46.67;102989.28;12653477;23;20034;-78
2022/07/03 14:23:26;;;;;;;6.78;1.30;;;;;;;26.85;46.84;102801.94;12654891;23;20676;-77
2022/07/03 14:33:52;;;;;;;1.88;0.80;;;;;;;26.69;46.31;102726.09;12651484;23;20053;-77
2022/07/03 14:38:53;;;;;;;1.20;0.73;;;;;;;26.58;46.26;102664.50;12629087;23;20523;-79
2022/07/03 14:43:55;;;;;;;2.50;1.00;;;;;;;26.91;46.33;102798.25;12653240;23;20049;-81
2022/07/03 14:48:57;;;;;;;3.50;0.90;;;;;;;27.10;46.17;102876.75;12653966;23;20026;-78
2022/07/03 14:53:58;;;;;;;4.30;0.82;;;;;;;26.88;46.30;102788.44;12653079;23;20453;-78
2022/07/03 14:59:08;;;;;;;2.00;0.80;;;;;;;26.36;46.00;102555.75;12627425;23;20034;-77
2022/07/03 15:04:42;;;;;;;3.45;0.93;;;;;;;26.21;46.30;102487.16;12627269;23;20025;-77
2022/07/03 15:10:09;;;;;;;2.22;1.00;;;;;;;25.94;45.90;102369.63;12627208;23;20060;-79
2022/07/03 15:15:13;;;;;;;4.53;1.23;;;;;;;25.67;45.97;102257.56;12627045;23;20112;-77
2022/07/03 15:20:17;;;;;;;2.45;1.00;;;;;;;26.26;46.03;102504.94;12653957;23;20049;-77
2022/07/03 15:25:19;;;;;;;3.85;1.42;;;;;;;26.96;45.88;102791.88;12626894;23;20445;-78
2022/07/03 15:30:22;;;;;;;2.47;0.85;;;;;;;26.25;46.15;102488.88;12651830;23;20061;-77
2022/07/03 15:35:25;;;;;;;1.85;0.80;;;;;;;26.26;45.71;102491.53;12627476;23;20014;-79
2022/07/03 15:40:40;;;;;;;5.47;1.00;;;;;;;26.39;45.74;102536.91;12653046;23;20619;-79
2022/07/03 15:45:50;;;;;;;2.72;0.82;;;;;;;25.84;45.51;102300.13;12653457;23;20048;-79
2022/07/03 15:51:24;;;;;;;3.47;0.80;;;;;;;25.55;45.62;102192.59;12627707;23;20108;-78
2022/07/03 15:56:36;;;;;;;2.05;0.80;;;;;;;25.37;45.77;102107.19;12654108;23;20018;-79
2022/07/03 16:02:12;;;;;;;2.88;0.90;;;;;;;25.94;45.97;102345.47;12629160;23;20122;-78
2022/07/03 16:07:15;;;;;;;2.95;0.88;;;;;;;25.67;45.63;102225.38;12652666;23;20022;-77
2022/07/03 16:12:25;;;;;;;12.77;1.10;;;;;;;25.45;45.56;102132.03;12656471;23;20046;-77
2022/07/03 16:17:27;;;;;;;6.13;1.00;;;;;;;24.18;45.75;101615.56;12662225;23;20114;-79
2022/07/03 16:22:34;;;;;;;1.13;0.60;;;;;;;24.09;45.68;101574.78;12658317;23;20083;-80
2022/07/03 16:27:35;;;;;;;4.07;0.82;;;;;;;24.36;45.62;101682.88;12651920;23;20104;-83
2022/07/03 16:32:39;;;;;;;2.17;0.68;;;;;;;24.47;45.76;101730.75;12654820;23;20102;-80
2022/07/03 16:37:49;;;;;;;3.45;0.70;;;;;;;24.14;45.74;101596.94;12659598;23;20143;-82
2022/07/03 16:42:51;;;;;;;1.00;0.45;;;;;;;24.02;45.65;101558.03;12658731;23;20097;-80
2022/07/03 16:47:56;;;;;;;1.13;0.60;;;;;;;23.96;45.90;101532.34;12633441;23;20045;-79
2022/07/03 16:52:58;;;;;;;3.55;0.60;;;;;;;24.03;45.86;101562.44;12654631;23;20041;-77
2022/07/03 16:58:01;;;;;;;1.92;1.15;;;;;;;23.88;46.10;101501.34;12658231;23;20449;-78
2022/07/03 17:03:05;;;;;;;2.50;0.60;;;;;;;23.84;46.20;101489.84;12654848;23;20026;-77
2022/07/03 17:08:07;;;;;;;2.08;0.65;;;;;;;23.37;46.29;101295.09;12657464;23;20080;-76
2022/07/03 17:13:10;;;;;;;0.93;0.50;;;;;;;22.99;46.29;101155.47;12656689;23;20096;-79
2022/07/03 17:18:12;;;;;;;0.40;0.40;;;;;;;22.19;46.24;100837.59;12631117;23;20033;-75
2022/07/03 17:23:24;;;;;;;0.77;0.50;;;;;;;22.24;46.59;100852.50;12630991;23;20097;-76
2022/07/03 17:28:26;;;;;;;1.38;0.80;;;;;;;22.54;46.81;100982.41;12654640;23;20034;-76
2022/07/03 17:33:28;;;;;;;3.38;0.80;;;;;;;22.50;46.88;100975.41;12656208;23;20097;-78
2022/07/03 17:38:33;;;;;;;2.15;0.88;;;;;;;22.12;46.95;100826.22;12657161;23;20065;-77
2022/07/03 17:43:47;;;;;;;2.47;1.27;;;;;;;21.44;47.06;100566.22;12654685;23;20026;-80
2022/07/03 17:48:53;;;;;;;3.85;1.70;;;;;;;20.81;47.27;100317.13;12655039;23;20511;-78
2022/07/03 17:53:56;;;;;;;4.72;1.02;;;;;;;20.20;47.23;100080.66;12654512;23;20097;-77
2022/07/03 17:58:59;;;;;;;4.30;1.00;;;;;;;19.81;47.80;99934.97;12629785;23;20096;-77
2022/07/03 18:04:02;;;;;;;7.45;1.30;;;;;;;19.36;48.01;99769.22;12655015;23;20032;-77
2022/07/03 18:09:28;;;;;;;4.47;1.02;;;;;;;19.40;48.18;99791.22;12655915;23;20361;-72
2022/07/03 18:14:29;;;;;;;;;;;;;;;19.28;48.07;99754.50;12657336;23;20092;-73
